Tiempo atmosférico en la estación meteorológica de Areso, Navarra (520 m.)



Fecha
DESCASC
Temp. máxima en grados centígrados (hora)
DESCASC
Temp. mínima en grados centígrados (hora)
DESCASC
Temp. media en grados centígrados
DESCASC
Racha de viento máxima en m/sg (hora)
DESCASC
Velocidad máxima media en intervalos de 10 minutos(hora)
DESCASC
Precipitaciones diarias en mm
DESCASC
Precipitaciones de 00:00 a 06:00 en mm
DESCASC
Precipitaciones de 06:00 a 12:00 en mm
DESCASC
Precipitaciones de 12:00 a 18:00 en mm
DESCASC
Precipitaciones de 18:00 a 24:00 en mm
DESCASC
19-04-2018 23.1 (16:10) 15.9 (07:20) 19.5 14.17 (11:30) 7.22 (11:10) 0 0 0 0 0
18-04-2018 23.8 (17:20) 12.7 (00:50) 18.2 13.61 (13:20) 7.5 (12:50) 0 0 0 0 0
17-04-2018 24.6 (17:00) 5.9 (00:30) 15.3 5.83 (08:00) 2.78 (11:00) 0 0 0 0 0
16-04-2018 11 (17:10) 6.3 (23:40) 8.7 4.17 (09:40) 1.39 (02:20) 14.4 7.8 5.6 1 0
15-04-2018 16.2 (12:50) 9 (00:00) 12.6 11.67 (03:30) 5 (03:30) 0 0 0 0 0
14-04-2018 16.4 (17:20) 6.8 (00:00) 11.6 6.39 (23:10) 2.78 (13:10) 0.2 0.2 0 0 0
13-04-2018 14 (17:40) 5.2 (00:00) 9.6 7.5 (14:00) 4.17 (18:40) 0.4 0 0.2 0.2 0
12-04-2018 13.1 (18:00) 6.7 (00:00) 9.9 7.78 (09:30) 2.78 (08:50) 49.2 27 21.2 1 0
11-04-2018 7.9 (15:40) 2.6 (00:00) 5.3 10.83 (19:10) 3.06 (12:40) 104.8 9.6 27.4 34.4 33.4
10-04-2018 7.3 (13:00) 2.6 (00:00) 5 11.67 (07:30) 6.39 (07:30) 15.4 0.4 2.4 4 8.6
09-04-2018 11.6 (12:20) 3.8 (00:00) 7.7 7.22 (17:40) 3.33 (17:00) 8 0 0 4 4
08-04-2018 11.9 (18:50) 5.2 (00:00) 8.5 5 (13:00) 2.22 (13:00) 22 9.2 11.6 1.2 0
07-04-2018 11.9 (00:40) 7.7 (00:00) 9.8 15.28 (02:40) 7.22 (12:20) 12.6 0.2 2.4 0.6 9.4
06-04-2018 21 (16:40) 11.6 (00:00) 16.3 20.28 (18:30) 12.5 (12:00) 2.6 0 0 0 2.6
05-04-2018 17.7 (16:40) 6.8 (00:00) 12.3 15 (23:30) 7.22 (23:30) 0.2 0.2 0 0 0
04-04-2018 15.5 (15:20) 7.9 (00:00) 11.7 16.11 (11:20) 8.06 (11:20) 12.4 0 0 2.8 9.6
03-04-2018 17 (15:40) 10.9 (00:00) 13.9 12.78 (17:20) 7.22 (07:50) 0.2 0 0 0 0.2
02-04-2018 18.7 (17:00) 10.7 (00:00) 14.7 17.22 (12:20) 8.89 (01:00) 0 0 0 0 0
01-04-2018 15.4 (16:00) 1.6 (00:00) 8.5 13.33 (20:50) 8.61 (20:50) 0 0 0 0 0
31-03-2018 8.3 (15:50) 3.4 (00:00) 5.9 10.56 (06:10) 5.56 (04:20) 7.4 0 6.6 0.6 0.2
30-03-2018 12 (17:10) 3.9 (00:00) 8 16.67 (04:30) 7.22 (02:10) 0.4 0 0.4 0 0
29-03-2018 13.9 (18:40) 5 (00:00) 9.4 7.22 (18:10) 3.61 (15:40) 2.8 2 0.8 0 0
28-03-2018 15.9 (15:30) 7.4 (00:00) 11.6 6.39 (14:00) 3.61 (14:00) 10 0 0 0 10
27-03-2018 9.8 (17:00) 4.8 (00:00) 7.3 7.5 (11:10) 2.22 (09:50) 9.4 2.8 6.2 0 0.4
26-03-2018 8.3 (12:10) 4.8 (00:00) 6.6 9.17 (03:30) 3.61 (09:00) 24.2 7.8 13.2 1.8 1.4
25-03-2018 6.6 (18:20) 4.2 (00:00) 5.4 12.22 (04:10) 3.61 (04:10) 11.2 1.8 0.4 3.6 5.4
24-03-2018 8.6 (12:20) 1.5 (00:00) 5.1 11.11 (11:10) 4.17 (10:10) 14.8 7.6 0 1.8 5.4
23-03-2018 12.2 (17:00) -1.7 (-00:0) 5.2 10.28 (23:40) 4.72 (19:50) 6.6 0 0.6 0.2 5.8

Gráficas

Temp. máximas Temp. mínimas Temp. medias Precipitaciones Rachas de viento máximas Velocidades máximas media en intervalos de 10 minutos

Datos horarios

Fecha y hora oficial Temperatura (ºC) Velocidad del viento (km/h) Dirección del viento Racha (km/h) Dirección de racha Precipitación (mm) Presión (hPa) Tendencia (hPa) Humedad (%)
2018-04-21 23:00:00 18 10 Sudoeste 24 Oeste 0 -- -- 53
2018-04-21 22:00:00 18.4 11 Sudoeste 30 Sur 0 -- -- 54
2018-04-21 21:00:00 18.7 6 Sudoeste 26 Sur 0 -- -- 50
2018-04-21 20:00:00 19.4 4 Oeste 26 Sudoeste 0 -- -- 45
2018-04-21 19:00:00 19.9 9 Sudoeste 31 Sudoeste 0 -- -- 46
2018-04-21 18:00:00 20.5 21 Sudoeste 32 Sudoeste 0 -- -- 42
2018-04-21 17:00:00 21.1 20 Sudoeste 40 Sur 0 -- -- 37
2018-04-21 16:00:00 22 17 Sur 40 Oeste 0 -- -- 37
2018-04-21 15:00:00 21.3 17 Sur 47 Sudoeste 0 -- -- 39
2018-04-21 14:00:00 20.4 28 Sudoeste 53 Sudoeste 0 -- -- 42
2018-04-21 13:00:00 19.7 30 Sudoeste 64 Sudoeste 0 -- -- 44
2018-04-21 12:00:00 18.7 28 Sudoeste 51 Sudoeste 0 -- -- 51
2018-04-21 11:00:00 17.7 21 Sudoeste 44 Sudoeste 0 -- -- 53
2018-04-21 10:00:00 16.4 14 Sudoeste 30 Sur 0 -- -- 56
2018-04-21 09:00:00 14.8 17 Sur 37 Sur 0 -- -- 60
2018-04-21 08:00:00 14.4 15 Sur 38 Sur 0 -- -- 61
2018-04-21 07:00:00 14.4 18 Sudoeste 36 Sur 0 -- -- 60
2018-04-21 06:00:00 14.4 18 Sudoeste 42 Sudoeste 0 -- -- 60
2018-04-21 05:00:00 14.6 14 Sur 38 Sur 0 -- -- 60
2018-04-21 04:00:00 14.6 7 Sur 26 Sur 0 -- -- 61
2018-04-21 03:00:00 15.5 13 Sur 28 Sur 0 -- -- 57
2018-04-21 02:00:00 16 10 Sur 34 Sur 0 -- -- 56
2018-04-21 01:00:00 17 9 Sudoeste 27 Sudoeste 0 -- -- 52
2018-04-21 00:00:00 15.9 7 Sur 18 Sur 0 -- -- 60
2018-04-20 23:00:00 16.6 4 Oeste 14 Nordeste 0 -- -- 59
2018-04-20 22:00:00 16.1 2 Sudeste 7 Sudeste 0 -- -- 60
2018-04-20 21:00:00 18.5 3 Noroeste 24 Oeste 0 -- -- 47
2018-04-20 20:00:00 20 9 Sudoeste 29 Sudoeste 0 -- -- 41
2018-04-20 19:00:00 21.5 13 Sur 32 Sur 0 -- -- 41
2018-04-20 18:00:00 22 14 Sur 38 Sudoeste 0 -- -- 43
2018-04-20 17:00:00 22.2 18 Sudoeste 34 Sudoeste 0 -- -- 42
2018-04-20 16:00:00 22.1 11 Sur 37 Sudoeste 0 -- -- 43
2018-04-20 15:00:00 20.7 20 Sudoeste 38 Sudoeste 0 -- -- 47
2018-04-20 14:00:00 20.5 16 Sudoeste 33 Sudoeste 0 -- -- 51
2018-04-20 13:00:00 20 15 Sudoeste 35 Sudoeste 0 -- -- 51
2018-04-20 12:00:00 18.7 21 Sudoeste 43 Sudoeste 0 -- -- 51
2018-04-20 11:00:00 17.8 24 Sudoeste 47 Sudoeste 0 -- -- 54
2018-04-20 10:00:00 16.5 17 Sur 35 Sudoeste 0 -- -- 58
2018-04-20 09:00:00 15.1 16 Sudoeste 39 Sur 0 -- -- 61
2018-04-20 08:00:00 15.1 18 Sur 41 Sudoeste 0 -- -- 60
2018-04-20 07:00:00 14.8 19 Sur 30 Sur 0 -- -- 61
2018-04-20 06:00:00 15 19 Sudoeste 36 Sudoeste 0 -- -- 61
2018-04-20 05:00:00 15.4 24 Sudoeste 38 Sudoeste 0 -- -- 61
2018-04-20 04:00:00 15.6 20 Sudoeste 36 Sudoeste 0 -- -- 59
2018-04-20 03:00:00 15.8 11 Sur 29 Sudeste 0 -- -- 57
2018-04-20 02:00:00 16.2 7 Sur 17 Sudeste 0 -- -- 57
2018-04-20 01:00:00 16.6 4 Nordeste 23 Sudoeste 0 -- -- 63
2018-04-20 00:00:00 16.8 3 Sudoeste 13 Sudoeste 0 -- -- 62
2018-04-19 23:00:00 17.6 9 Sudoeste 26 Sudoeste 0 -- -- 58
2018-04-19 22:00:00 18.2 5 Sudoeste 22 Sudoeste 0 -- -- 52
2018-04-19 21:00:00 19.3 10 Sudoeste 19 Sudoeste 0 -- -- 46
2018-04-19 20:00:00 20.6 9 Sudoeste 29 Sur 0 -- -- 44
2018-04-19 19:00:00 21.9 15 Sudoeste 32 Sur 0 -- -- 42
2018-04-19 18:00:00 22.7 12 Sur 33 Sudoeste 0 -- -- 42
2018-04-19 17:00:00 22.7 14 Sur 30 Sur 0 -- -- 45
2018-04-19 16:00:00 22.9 12 Sur 31 Sudeste 0 -- -- 42
2018-04-19 15:00:00 22 21 Sudoeste 40 Sudoeste 0 -- -- 43
2018-04-19 14:00:00 22.1 13 Sur 46 Sudoeste 0 -- -- 44
2018-04-19 13:00:00 21.2 20 Sudoeste 41 Sur 0 -- -- 40
2018-04-19 12:00:00 20.9 21 Sur 51 Sudoeste 0 -- -- 42
2018-04-19 11:00:00 19.5 24 Sudoeste 47 Sudoeste 0 -- -- 41
2018-04-19 10:00:00 18.4 23 Sudoeste 44 Sudoeste 0 -- -- 45
2018-04-19 09:00:00 16.9 14 Sur 33 Sur 0 -- -- 50
2018-04-19 08:00:00 16.3 18 Sur 39 Sudoeste 0 -- -- 52
2018-04-19 07:00:00 16.1 14 Sudoeste 32 Sur 0 -- -- 52
2018-04-19 06:00:00 16.6 17 Sur 43 Sur 0 -- -- 51
2018-04-19 05:00:00 16.9 14 Sur 36 Sudeste 0 -- -- 50
2018-04-19 04:00:00 17.2 17 Sur 39 Sudoeste 0 -- -- 51
2018-04-19 03:00:00 17.7 17 Sur 33 Sur 0 -- -- 51
2018-04-19 02:00:00 18.2 14 Sur 37 Sudoeste 0 -- -- 50
2018-04-19 01:00:00 18.6 18 Sudoeste 39 Sudoeste 0 -- -- 49
2018-04-19 00:00:00 18.9 12 Sur 31 Sudeste 0 -- -- 46
2018-04-18 23:00:00 19.5 12 Sur 34 Sudoeste 0 -- -- 45
2018-04-18 22:00:00 20 17 Sudoeste 36 Sudoeste 0 -- -- 44
2018-04-18 21:00:00 20.7 11 Sur 28 Sudeste 0 -- -- 40
2018-04-18 20:00:00 21.7 11 Sudoeste 31 Sur 0 -- -- 43
2018-04-18 19:00:00 23 12 Sudoeste 42 Sudoeste 0 -- -- 34
2018-04-18 18:00:00 23.5 22 Sur 43 Sur 0 -- -- 33
2018-04-18 17:00:00 23.6 21 Sur 41 Sur 0 -- -- 36
2018-04-18 16:00:00 23.5 21 Sudoeste 43 Sur 0 -- -- 42
2018-04-18 15:00:00 23 22 Sudoeste 48 Sudoeste 0 -- -- 41
2018-04-18 14:00:00 22.1 18 Sur 49 Sudoeste 0 -- -- 48
2018-04-18 13:00:00 20.9 26 Sudoeste 47 Sudoeste 0 -- -- 48
2018-04-18 12:00:00 20 18 Sudoeste 47 Sudoeste 0 -- -- 48
2018-04-18 11:00:00 18.5 18 Sudoeste 49 Sur 0 -- -- 55
2018-04-18 10:00:00 17.3 22 Sudoeste 39 Sudoeste 0 -- -- 57
2018-04-18 09:00:00 16 17 Sudoeste 35 Sur 0 -- -- 58
2018-04-18 08:00:00 15.3 15 Sudoeste 45 Sudoeste 0 -- -- 61
2018-04-18 07:00:00 15.7 21 Sur 44 Sur 0 -- -- 59
2018-04-18 06:00:00 15.9 12 Sudoeste 30 Oeste 0 -- -- 60
2018-04-18 05:00:00 16 8 Oeste 15 Noroeste 0 -- -- 62
2018-04-18 04:00:00 14.4 2 Oeste 12 Noroeste 0 -- -- 71
2018-04-18 03:00:00 13.2 3 Norte 12 Noroeste 0 -- -- 78
2018-04-18 02:00:00 13.1 2 Este 6 Sudeste 0 -- -- 78
2018-04-18 01:00:00 12.8 0 Calma 4 Sudeste 0 -- -- 79
2018-04-18 00:00:00 13.6 0 Calma 3 Nordeste 0 -- -- 77
2018-04-17 23:00:00 14.1 0 Calma 6 Nordeste 0 -- -- 77
2018-04-17 22:00:00 15.4 0 Calma 4 Norte 0 -- -- 71
2018-04-17 21:00:00 17.1 0 Calma 8 Nordeste 0 -- -- 64
2018-04-17 20:00:00 19.8 4 Nordeste 18 Noroeste 0 -- -- 52
2018-04-17 19:00:00 21.8 9 Noroeste 17 Noroeste 0 -- -- 48
2018-04-17 18:00:00 23.4 6 Norte 16 Norte 0 -- -- 45
2018-04-17 17:00:00 24.6 3 Sudeste 10 Nordeste 0 -- -- 42
2018-04-17 16:00:00 23.6 3 Este 9 Nordeste 0 -- -- 33
2018-04-17 15:00:00 22.2 6 Sudoeste 13 Sur 0 -- -- 37
2018-04-17 14:00:00 20.8 8 Sudoeste 14 Sudoeste 0 -- -- 39
2018-04-17 13:00:00 19.5 7 Sur 17 Sudoeste 0 -- -- 50
2018-04-17 12:00:00 17.5 6 Sudoeste 18 Sur 0 -- -- 56
2018-04-17 11:00:00 15.4 10 Sur 19 Sudoeste 0 -- -- 57
2018-04-17 10:00:00 13.2 5 Sudoeste 14 Sur 0 -- -- 67
2018-04-17 09:00:00 10.4 5 Sudoeste 14 Oeste 0 -- -- 76
2018-04-17 08:00:00 9.4 9 Oeste 21 Oeste 0 -- -- 78
2018-04-17 07:00:00 7.6 3 Sudoeste 9 Oeste 0 -- -- 88
2018-04-17 06:00:00 8.7 5 Oeste 14 Noroeste 0 -- -- 83
2018-04-17 05:00:00 8.3 5 Oeste 12 Noroeste 0 -- -- 87
2018-04-17 04:00:00 7.9 0 Calma 12 Noroeste 0 -- -- 89
2018-04-17 03:00:00 9.1 5 Oeste 10 Noroeste 0 -- -- 84
2018-04-17 02:00:00 6.5 0 Calma 3 Norte 0 -- -- 100
2018-04-17 01:00:00 6 0 Calma 3 Nordeste 0 -- -- 100
2018-04-17 00:00:00 6.3 0 Calma 0 Calma 0 -- -- 100
2018-04-16 23:00:00 6.9 0 Calma 2 Nordeste 0 -- -- 99
2018-04-16 22:00:00 7.9 0 Calma 3 Nordeste 0 -- -- 97
2018-04-16 21:00:00 9.3 0 Calma 3 Norte 0 -- -- 93
2018-04-16 20:00:00 10.8 0 Calma 6 Norte 0 -- -- 92
2018-04-16 19:00:00 10.8 0 Calma 5 Nordeste 0 -- -- 90
2018-04-16 18:00:00 10.5 3 Norte 9 Nordeste 0 -- -- 91
2018-04-16 17:00:00 10.5 5 Norte 9 Noroeste 0 -- -- 90
2018-04-16 16:00:00 10.9 3 Nordeste 10 Nordeste 0 -- -- 93
2018-04-16 15:00:00 9.3 3 Noroeste 10 Oeste 0.2 -- -- 96
2018-04-16 14:00:00 8.9 2 Norte 14 Noroeste 0.2 -- -- 97
2018-04-16 13:00:00 8.3 3 Oeste 13 Oeste 0.6 -- -- 98
2018-04-16 12:00:00 8.1 2 Sudeste 12 Oeste 0.6 -- -- 99
2018-04-16 11:00:00 7.8 3 Sur 9 Sur 0.4 -- -- 100
2018-04-16 10:00:00 7.3 4 Noroeste 15 Este 0.6 -- -- 100
2018-04-16 09:00:00 7.1 2 Noroeste 9 Nordeste 0.8 -- -- 100
2018-04-16 08:00:00 6.9 0 Calma 10 Este 0.8 -- -- 99
2018-04-16 07:00:00 7 3 Sudoeste 13 Oeste 2.4 -- -- 97
2018-04-16 06:00:00 7.7 2 Este 9 Nordeste 1.8 -- -- 100
2018-04-16 05:00:00 7.7 4 Este 10 Este 1.8 -- -- 100
2018-04-16 04:00:00 7.8 2 Oeste 4 Oeste 1.6 -- -- 98
2018-04-16 03:00:00 8 2 Oeste 11 Noroeste 2.6 -- -- 94
2018-04-16 02:00:00 8.8 2 Norte 7 Norte 0 -- -- 83
2018-04-16 01:00:00 8.8 0 Calma 4 Nordeste 0 -- -- 80
2018-04-16 00:00:00 9 0 Calma 4 Este 0 -- -- 83
2018-04-15 23:00:00 9.3 0 Calma 8 Nordeste 0 -- -- 80
2018-04-15 22:00:00 9.3 0 Calma 12 Este 0 -- -- 80
2018-04-15 21:00:00 10 0 Calma 9 Este 0 -- -- 74
2018-04-15 20:00:00 10.3 4 Nordeste 17 Nordeste 0 -- -- 72
2018-04-15 19:00:00 10.8 6 Nordeste 15 Nordeste 0 -- -- 79
2018-04-15 18:00:00 11.4 5 Nordeste 15 Nordeste 0 -- -- 77
2018-04-15 17:00:00 11.6 5 Nordeste 16 Nordeste 0 -- -- 76
2018-04-15 16:00:00 11.7 6 Nordeste 17 Nordeste 0 -- -- 81
2018-04-15 15:00:00 12.8 6 Nordeste 16 Nordeste 0 -- -- 80
2018-04-15 14:00:00 14.1 9 Este 22 Este 0 -- -- 72
2018-04-15 13:00:00 15.4 10 Este 21 Este 0 -- -- 67
2018-04-15 12:00:00 15.7 2 Sur 20 Noroeste 0 -- -- 58
2018-04-15 11:00:00 14.7 8 Oeste 18 Oeste 0 -- -- 55
2018-04-15 10:00:00 13.3 0 Calma 9 Sur 0 -- -- 66
2018-04-15 09:00:00 11.3 3 Oeste 10 Oeste 0 -- -- 75
2018-04-15 08:00:00 10.9 0 Calma 14 Oeste 0 -- -- 75
2018-04-15 07:00:00 11.5 5 Sudoeste 17 Oeste 0 -- -- 69
2018-04-15 06:00:00 11.4 7 Oeste 23 Oeste 0 -- -- 67
2018-04-15 05:00:00 10.7 10 Sudoeste 24 Sur 0 -- -- 75
2018-04-15 04:00:00 11.3 14 Sur 42 Sur 0 -- -- 72
2018-04-15 03:00:00 10.8 10 Sur 24 Sur 0 -- -- 71
2018-04-15 02:00:00 11 10 Sur 18 Sur 0 -- -- 69
2018-04-15 01:00:00 10.3 2 Noroeste 10 Noroeste 0 -- -- 76
2018-04-15 00:00:00 10.5 0 Calma 23 Oeste 0 -- -- 78
2018-04-14 23:00:00 12.1 9 Oeste 20 Sudoeste 0 -- -- 69
2018-04-14 22:00:00 11 3 Norte 8 Noroeste 0 -- -- 76
2018-04-14 21:00:00 12.2 0 Calma 5 Nordeste 0 -- -- 79
2018-04-14 20:00:00 14.2 3 Nordeste 8 Nordeste 0 -- -- 73
2018-04-14 19:00:00 15.7 3 Nordeste 11 Este 0 -- -- 66
2018-04-14 18:00:00 16 5 Este 11 Este 0 -- -- 66
2018-04-14 17:00:00 15.9 4 Nordeste 19 Nordeste 0 -- -- 64
2018-04-14 16:00:00 14.6 5 Nordeste 15 Nordeste 0 -- -- 71
2018-04-14 15:00:00 15.4 4 Nordeste 17 Nordeste 0 -- -- 61
2018-04-14 14:00:00 13.8 8 Noroeste 16 Sudoeste 0 -- -- 58
2018-04-14 13:00:00 13 6 Sudoeste 17 Sudoeste 0 -- -- 63
2018-04-14 12:00:00 13.6 4 Sur 13 Sudoeste 0 -- -- 66
2018-04-14 11:00:00 12 5 Sur 14 Sur 0 -- -- 74
2018-04-14 10:00:00 9.6 5 Sudoeste 13 Sur 0 -- -- 80
2018-04-14 09:00:00 8.5 5 Oeste 10 Oeste 0 -- -- 85
2018-04-14 08:00:00 7 0 Calma 3 Oeste 0 -- -- 95
2018-04-14 07:00:00 7.1 0 Calma 3 Oeste 0 -- -- 90
2018-04-14 06:00:00 7.9 2 Oeste 10 Oeste 0 -- -- 88
2018-04-14 05:00:00 8.1 4 Oeste 10 Noroeste 0 -- -- 86
2018-04-14 04:00:00 7.7 2 Noroeste 14 Oeste 0 -- -- 93
2018-04-14 03:00:00 8 4 Sudoeste 10 Oeste 0 -- -- 94
2018-04-14 02:00:00 8.4 0 Calma 3 Noroeste 0.2 -- -- 99
2018-04-14 01:00:00 8.6 0 Calma 2 Oeste 0 -- -- 97
2018-04-14 00:00:00 8.6 0 Calma 4 Sudoeste 0 -- -- 97
2018-04-13 23:00:00 9.2 2 Sudoeste 5 Sudoeste 0 -- -- 96
2018-04-13 22:00:00 9.6 0 Calma 10 Noroeste 0 -- -- 93
2018-04-13 21:00:00 -- 3 Oeste 8 Oeste 0 -- -- --
2018-04-13 20:00:00 11.7 3 Oeste 8 Sudoeste 0 -- -- 64
2018-04-13 19:00:00 11.9 5 Sur 26 Sur 0 -- -- 69
2018-04-13 18:00:00 13.5 12 Sudoeste 24 Sur 0 -- -- 63
2018-04-13 17:00:00 13.2 5 Este 23 Sudeste 0.2 -- -- 77
2018-04-13 16:00:00 13.1 14 Sudoeste 25 Sudoeste 0 -- -- 68
2018-04-13 15:00:00 11.9 6 Sur 27 Sudoeste 0 -- -- 70
2018-04-13 14:00:00 12.3 11 Sur 27 Sudoeste 0 -- -- 67
2018-04-13 13:00:00 10.5 9 Sur 24 Sur 0 -- -- 78
2018-04-13 12:00:00 9.3 6 Sur 19 Sudoeste 0.2 -- -- 83
2018-04-13 11:00:00 9.2 6 Sudeste 16 Sudeste 0 -- -- 83
2018-04-13 10:00:00 9 7 Sudeste 22 Sur 0 -- -- 85
2018-04-13 09:00:00 8.1 5 Sur 20 Sur 0 -- -- 88
2018-04-13 08:00:00 7.5 0 Calma 15 Sudeste 0 -- -- 90
2018-04-13 07:00:00 6.6 0 Calma 14 Sudeste 0 -- -- 91
2018-04-13 06:00:00 5.4 0 Calma 4 Sudoeste 0 -- -- 95
2018-04-13 05:00:00 6.1 0 Calma 5 Oeste 0 -- -- 93
2018-04-13 04:00:00 7.3 3 Oeste 13 Sudoeste 0 -- -- 88
2018-04-13 03:00:00 6.5 0 Calma 5 Sudoeste 0 -- -- 94
2018-04-13 02:00:00 7.2 0 Calma 4 Oeste 0 -- -- 93
2018-04-13 01:00:00 7.7 0 Calma 12 Oeste 0 -- -- 90
2018-04-13 00:00:00 7.2 3 Sur 10 Oeste 0 -- -- 96
2018-04-12 23:00:00 7.3 0 Calma 2 Este 0 -- -- 94
2018-04-12 22:00:00 8.6 0 Calma 3 Este 0 -- -- 91
2018-04-12 21:00:00 10.1 0 Calma 6 Este 0 -- -- 84
2018-04-12 20:00:00 11.4 2 Este 11 Este 0 -- -- 81
2018-04-12 19:00:00 13 3 Este 9 Este 0 -- -- 74
2018-04-12 18:00:00 13.1 2 Nordeste 8 Este 0 -- -- 70
2018-04-12 17:00:00 12.6 2 Nordeste 7 Nordeste 0 -- -- 76
2018-04-12 16:00:00 10.6 3 Este 8 Nordeste 0 -- -- 89
2018-04-12 15:00:00 9.4 2 Noroeste 11 Noroeste 0 -- -- 95
2018-04-12 14:00:00 7.9 3 Sudoeste 14 Noroeste 0.4 -- -- 99
2018-04-12 13:00:00 7.6 2 Nordeste 5 Oeste 0.6 -- -- 100
2018-04-12 12:00:00 7.6 0 Calma 17 Noroeste 1.4 -- -- 99
2018-04-12 11:00:00 7.5 5 Noroeste 15 Oeste 2 -- -- 98
2018-04-12 10:00:00 7.5 5 Noroeste 28 Oeste 3.6 -- -- 98
2018-04-12 09:00:00 7.7 9 Oeste 24 Oeste 4.4 -- -- 96
2018-04-12 08:00:00 7.8 4 Sudoeste 21 Noroeste 3.8 -- -- 99
2018-04-12 07:00:00 7.8 5 Sur 22 Norte 6 -- -- 100
2018-04-12 06:00:00 7.8 3 Este 12 Sudeste 1.2 -- -- 100
2018-04-12 05:00:00 7.9 4 Este 14 Sudeste 7 -- -- 100
2018-04-12 04:00:00 7.7 5 Sudoeste 17 Oeste 7.8 -- -- 100
2018-04-12 03:00:00 7.7 4 Sudeste 17 Sur 3.4 -- -- 100
2018-04-12 02:00:00 7.8 5 Noroeste 15 Oeste 4 -- -- 99
2018-04-12 01:00:00 7.8 5 Sudoeste 19 Sudoeste 3.6 -- -- 100
2018-04-12 00:00:00 7.7 8 Sudoeste 29 Noroeste 5.4 -- -- 100
2018-04-11 23:00:00 7.5 5 Sur 21 Norte 5.8 -- -- 99
2018-04-11 22:00:00 7.5 5 Sur 18 Este 4.8 -- -- 100
2018-04-11 21:00:00 7.5 6 Sudeste 31 Este 7 -- -- 100
2018-04-11 20:00:00 7.6 6 Sur 39 Este 7 -- -- 100
2018-04-11 19:00:00 7.7 6 Sudeste 23 Oeste 3.4 -- -- 100
2018-04-11 18:00:00 7.7 8 Sur 23 Este 4.2 -- -- 100
2018-04-11 17:00:00 7.6 8 Sudeste 35 Este 6.2 -- -- 100
2018-04-11 16:00:00 7.8 6 Sudeste 27 Nordeste 2.4 -- -- 99
2018-04-11 15:00:00 7.6 5 Sudeste 23 Sudeste 7.4 -- -- 100
2018-04-11 14:00:00 7.5 7 Sur 32 Sudoeste 6.8 -- -- 99
2018-04-11 13:00:00 7.2 9 Sur 30 Sudoeste 7.4 -- -- 99
2018-04-11 12:00:00 7 8 Sur 26 Oeste 4 -- -- 99
2018-04-11 11:00:00 6.6 10 Sudoeste 32 Este 5 -- -- 99
2018-04-11 10:00:00 6.2 8 Sur 26 Noroeste 4.8 -- -- 100
2018-04-11 09:00:00 5.8 6 Sur 21 Sudoeste 4.8 -- -- 100
2018-04-11 08:00:00 5.5 3 Sudeste 15 Sudoeste 4.2 -- -- 100
2018-04-11 07:00:00 4.9 5 Sur 10 Sudoeste 4.6 -- -- 100
2018-04-11 06:00:00 3.7 0 Calma 5 Sudoeste 2.4 -- -- 100
2018-04-11 05:00:00 3.3 0 Calma 4 Sudoeste 2.6 -- -- 100
2018-04-11 04:00:00 3.2 0 Calma 2 Sudoeste 1.8 -- -- 100
2018-04-11 03:00:00 3.1 0 Calma 2 Sudoeste 1 -- -- 100
2018-04-11 02:00:00 2.9 0 Calma 3 Sudoeste 1.2 -- -- 100
2018-04-11 01:00:00 2.9 0 Calma 5 Sudoeste 0.6 -- -- 99
2018-04-11 00:00:00 2.7 0 Calma 4 Sudoeste 1.2 -- -- 99
2018-04-10 23:00:00 2.7 3 Sudoeste 7 Sudoeste 1 -- -- 98
2018-04-10 22:00:00 3 0 Calma 17 Noroeste 3.2 -- -- 96
2018-04-10 21:00:00 4.4 8 Norte 18 Norte 2.2 -- -- 95
2018-04-10 20:00:00 6.2 3 Nordeste 21 Sudoeste 0.2 -- -- 93
2018-04-10 19:00:00 6.6 3 Norte 23 Sudoeste 0.8 -- -- 92
2018-04-10 18:00:00 7.2 10 Sur 41 Sur 0 -- -- 87
2018-04-10 17:00:00 7.2 15 Sur 41 Sur 0.6 -- -- 88
2018-04-10 16:00:00 6.8 17 Sur 38 Este 1.4 -- -- 89
2018-04-10 15:00:00 6.9 13 Sur 38 Sudoeste 1 -- -- 90
2018-04-10 14:00:00 7 14 Sur 40 Sudoeste 0.6 -- -- 88
2018-04-10 13:00:00 7.3 16 Sur 39 Sudoeste 0.4 -- -- 88
2018-04-10 12:00:00 7 17 Sur 40 Sudoeste 0.8 -- -- 89
2018-04-10 11:00:00 6.6 17 Sudoeste 37 Sur 0.4 -- -- 90
2018-04-10 10:00:00 5.9 14 Sur 34 Sur 1 -- -- 91
2018-04-10 09:00:00 5.7 20 Sur 37 Sur 0.2 -- -- 89
2018-04-10 08:00:00 5.9 21 Sur 42 Sudoeste 0 -- -- 86
2018-04-10 07:00:00 5.3 11 Sur 41 Sur 0 -- -- 87
2018-04-10 06:00:00 5.2 17 Sudoeste 36 Sur 0 -- -- 87
2018-04-10 05:00:00 5.2 9 Sudoeste 17 Oeste 0 -- -- 89
2018-04-10 04:00:00 5 5 Oeste 11 Oeste 0 -- -- 90
2018-04-10 03:00:00 4.9 5 Oeste 9 Oeste 0 -- -- 96
2018-04-10 02:00:00 5.2 0 Calma 4 Oeste 0 -- -- 100
2018-04-10 01:00:00 -- 0 Calma 4 Sudoeste 0.4 -- -- --
2018-04-10 00:00:00 5.1 0 Calma 2 Sudoeste 1.4 -- -- 100
2018-04-09 23:00:00 5 0 Calma 4 Sur 1 -- -- 100
2018-04-09 22:00:00 5.1 0 Calma 3 Oeste 0 -- -- 98
2018-04-09 21:00:00 5.2 0 Calma 17 Noroeste 1.2 -- -- 95
2018-04-09 20:00:00 5.8 5 Oeste 14 Noroeste 0.4 -- -- 89
2018-04-09 19:00:00 6.5 5 Sudoeste 18 Noroeste 0 -- -- 88
2018-04-09 18:00:00 6.8 8 Oeste 26 Oeste 0 -- -- 83
2018-04-09 17:00:00 7.3 12 Sudoeste 21 Sudoeste 1 -- -- 92
2018-04-09 16:00:00 6.7 8 Noroeste 15 Noroeste 1 -- -- 89
2018-04-09 15:00:00 7.6 6 Sudoeste 22 Sur 1.4 -- -- 89
2018-04-09 14:00:00 8.7 9 Sudoeste 19 Sudoeste 0.6 -- -- 86
2018-04-09 13:00:00 10.6 2 Norte 10 Este 0 -- -- 78
2018-04-09 12:00:00 10.9 2 Sudoeste 15 Nordeste 0 -- -- 74
2018-04-09 11:00:00 10.3 3 Sudeste 10 Nordeste 0 -- -- 82
2018-04-09 10:00:00 7.5 2 Norte 5 Este 0 -- -- 100
2018-04-09 09:00:00 5.3 0 Calma 3 Noroeste 0 -- -- 100
2018-04-09 08:00:00 4.4 0 Calma 2 Noroeste 0 -- -- 100
2018-04-09 07:00:00 4.3 0 Calma 2 Noroeste 0 -- -- 100
2018-04-09 06:00:00 4.4 0 Calma 2 Norte 0 -- -- 100
2018-04-09 05:00:00 4.3 0 Calma 2 Norte 0 -- -- 100
2018-04-09 04:00:00 4.1 0 Calma 2 Norte 0 -- -- 100
2018-04-09 03:00:00 4.3 0 Calma 2 Norte 0 -- -- 99
2018-04-09 02:00:00 4.9 0 Calma 2 Norte 0 -- -- 99
2018-04-09 01:00:00 5 0 Calma 2 Norte 0 -- -- 98
2018-04-09 00:00:00 5.2 0 Calma 2 Norte 0 -- -- 97
2018-04-08 23:00:00 6.1 0 Calma 2 Norte 0 -- -- 95
2018-04-08 22:00:00 7.1 0 Calma 4 Noroeste 0 -- -- 91
2018-04-08 21:00:00 8.6 0 Calma 3 Noroeste 0 -- -- 84
2018-04-08 20:00:00 10.3 0 Calma 8 Oeste 0 -- -- 75
2018-04-08 19:00:00 11.8 5 Noroeste 9 Nordeste 0 -- -- 68
2018-04-08 18:00:00 11 2 Nordeste 10 Este 0 -- -- 68
2018-04-08 17:00:00 11.4 3 Nordeste 13 Nordeste 0 -- -- 76
2018-04-08 16:00:00 10.9 4 Este 10 Nordeste 0.2 -- -- 84
2018-04-08 15:00:00 10 3 Este 9 Nordeste 0.2 -- -- 88
2018-04-08 14:00:00 9.3 0 Calma 11 Oeste 0.6 -- -- 89
2018-04-08 13:00:00 8.7 8 Oeste 18 Oeste 0.2 -- -- 89
2018-04-08 12:00:00 8.3 3 Este 12 Nordeste 1.6 -- -- 98
2018-04-08 11:00:00 7.9 0 Calma 7 Nordeste 2 -- -- 100
2018-04-08 10:00:00 7.4 2 Este 8 Sudeste 0.8 -- -- 100
2018-04-08 09:00:00 6.6 0 Calma 3 Sudeste 2.4 -- -- 100
2018-04-08 08:00:00 6.6 0 Calma 3 Sur 2.4 -- -- 100
2018-04-08 07:00:00 6.7 0 Calma 7 Sur 2.4 -- -- 100
2018-04-08 06:00:00 7 0 Calma 2 Sur 1.4 -- -- 100
2018-04-08 05:00:00 7.2 0 Calma 3 Sur 1.8 -- -- 100
2018-04-08 04:00:00 7.3 0 Calma 3 Sur 2 -- -- 100
2018-04-08 03:00:00 7.4 0 Calma 4 Sudeste 1 -- -- 100
2018-04-08 02:00:00 7.5 0 Calma 3 Sudoeste 1.2 -- -- 100
2018-04-08 01:00:00 7.7 0 Calma 6 Sur 1.8 -- -- 100
2018-04-08 00:00:00 -- 0 Calma 4 Norte 1.4 -- -- --
2018-04-07 23:00:00 8 0 Calma 3 Norte 1.4 -- -- 97
2018-04-07 22:00:00 8.5 0 Calma 12 Sur 4 -- -- 96
2018-04-07 21:00:00 9.3 3 Noroeste 10 Noroeste 1.8 -- -- 94
2018-04-07 20:00:00 10 6 Norte 15 Oeste 0.4 -- -- 93
2018-04-07 19:00:00 10.7 10 Sudoeste 22 Sudoeste 0.4 -- -- 85
2018-04-07 18:00:00 11 11 Sudoeste 26 Sudoeste 0 -- -- 82
2018-04-07 17:00:00 11.3 13 Sudoeste 40 Sudoeste 0 -- -- 76
2018-04-07 16:00:00 11.3 19 Sudoeste 40 Sudoeste 0 -- -- 74
2018-04-07 15:00:00 11.2 19 Sudoeste 41 Sudoeste 0 -- -- 71
2018-04-07 14:00:00 11.1 22 Sudoeste 46 Sudoeste 0 -- -- 71
2018-04-07 13:00:00 9.3 16 Sur 52 Sudoeste 0.6 -- -- 84
2018-04-07 12:00:00 8.6 15 Sur 39 Sur 1.8 -- -- 83
2018-04-07 11:00:00 9.3 18 Sudoeste 35 Sudoeste 0.6 -- -- 78
2018-04-07 10:00:00 10.7 11 Sudoeste 33 Este 0 -- -- 70
2018-04-07 09:00:00 10.8 5 Sur 28 Sudoeste 0 -- -- 71
2018-04-07 08:00:00 10.7 6 Sudoeste 28 Sur 0 -- -- 74
2018-04-07 07:00:00 11.4 9 Sudeste 28 Sur 0 -- -- 72
2018-04-07 06:00:00 11.4 10 Sudoeste 36 Sudoeste 0 -- -- 73
2018-04-07 05:00:00 11.6 18 Sur 51 Sudoeste 0 -- -- 77
2018-04-07 04:00:00 11.7 20 Sur 49 Sudoeste 0 -- -- 78
2018-04-07 03:00:00 11 21 Sur 55 Sudeste 0.2 -- -- 84
2018-04-07 02:00:00 11.2 14 Sudeste 48 Sudeste 0 -- -- 81
2018-04-07 01:00:00 11.9 8 Sudoeste 44 Este 0 -- -- 74
2018-04-07 00:00:00 11.8 9 Sudeste 48 Sur 0.2 -- -- 76
2018-04-06 23:00:00 11.7 9 Sudoeste 21 Sur 1.6 -- -- 85
2018-04-06 22:00:00 12.2 9 Sur 54 Sur 0.8 -- -- 81
2018-04-06 21:00:00 12.8 15 Sur 50 Sudeste 0 -- -- 78
2018-04-06 20:00:00 14.1 23 Sur 73 Sur 0 -- -- 68
2018-04-06 19:00:00 15.7 30 Sudoeste 73 Sur 0 -- -- 54
2018-04-06 18:00:00 18.1 22 Sudeste 57 Sudoeste 0 -- -- 41
2018-04-06 17:00:00 20.5 20 Sudoeste 54 Sudoeste 0 -- -- 36
2018-04-06 16:00:00 20.2 25 Sudoeste 56 Sudoeste 0 -- -- 34
2018-04-06 15:00:00 19.9 24 Sudoeste 67 Sudoeste 0 -- -- 35
2018-04-06 14:00:00 18.6 30 Sur 60 Sudoeste 0 -- -- 38
2018-04-06 13:00:00 17 24 Sur 65 Sur 0 -- -- 48
2018-04-06 12:00:00 15.9 45 Sur 71 Sudoeste 0 -- -- 44
2018-04-06 11:00:00 15.1 29 Sudoeste 56 Sur 0 -- -- 48
2018-04-06 10:00:00 13.1 24 Sudoeste 60 Sudoeste 0 -- -- 52
2018-04-06 09:00:00 13.2 28 Sudoeste 52 Sudoeste 0 -- -- 51
2018-04-06 08:00:00 13.2 28 Sur 61 Sur 0 -- -- 52
2018-04-06 07:00:00 12.6 22 Sur 48 Sur 0 -- -- 56
2018-04-06 06:00:00 13.3 20 Sudoeste 50 Sur 0 -- -- 54
2018-04-06 05:00:00 13.9 27 Sur 58 Sur 0 -- -- 52
2018-04-06 04:00:00 13.7 30 Sur 55 Sudoeste 0 -- -- 52
2018-04-06 03:00:00 14.2 31 Sudoeste 59 Sudoeste 0 -- -- 51
2018-04-06 02:00:00 15.4 31 Sudoeste 55 Sudoeste 0 -- -- 47
2018-04-06 01:00:00 14.8 27 Sur 50 Sur 0 -- -- 47
2018-04-06 00:00:00 15 16 Sur 54 Sur 0 -- -- 47
2018-04-05 23:00:00 15 24 Sur 48 Sur 0 -- -- 47
2018-04-05 22:00:00 15.1 8 Sur 33 Sudeste 0 -- -- 49
2018-04-05 21:00:00 15.5 10 Sur 35 Sudeste 0 -- -- 49
2018-04-05 20:00:00 16.1 12 Sur 33 Sur 0 -- -- 49
2018-04-05 19:00:00 17 9 Sur 31 Sudoeste 0 -- -- 48
2018-04-05 18:00:00 17.2 6 Sudoeste 25 Sur 0 -- -- 47
2018-04-05 17:00:00 17.7 9 Sudeste 28 Sudoeste 0 -- -- 47
2018-04-05 16:00:00 16.6 8 Sur 27 Sudoeste 0 -- -- 51
2018-04-05 15:00:00 15.7 10 Sur 24 Sur 0 -- -- 55
2018-04-05 14:00:00 14.7 13 Sur 31 Sudoeste 0 -- -- 57
2018-04-05 13:00:00 13.9 8 Sur 28 Sur 0 -- -- 68
2018-04-05 12:00:00 12.5 10 Sur 27 Sur 0 -- -- 67
2018-04-05 11:00:00 11 11 Sur 26 Sur 0 -- -- 75
2018-04-05 10:00:00 9.1 3 Sudoeste 11 Sudoeste 0 -- -- 89
2018-04-05 09:00:00 7.1 0 Calma 2 Oeste 0 -- -- 100
2018-04-05 08:00:00 7 0 Calma 2 Oeste 0 -- -- 100
2018-04-05 07:00:00 7.1 0 Calma 3 Oeste 0 -- -- 100
2018-04-05 06:00:00 7.1 0 Calma 2 Oeste 0 -- -- 99
2018-04-05 05:00:00 7.2 0 Calma 3 Oeste 0 -- -- 98
2018-04-05 04:00:00 7.4 0 Calma 5 Noroeste 0 -- -- 96
2018-04-05 03:00:00 7.6 3 Sudoeste 12 Sudoeste 0 -- -- 93
2018-04-05 02:00:00 7.7 3 Noroeste 10 Noroeste 0 -- -- 94
2018-04-05 01:00:00 7.9 0 Calma 13 Norte 0.2 -- -- 96
2018-04-05 00:00:00 7.9 2 Nordeste 12 Este 0.2 -- -- 97
2018-04-04 23:00:00 8.4 0 Calma 4 Sur 1 -- -- 99
2018-04-04 22:00:00 8.6 0 Calma 10 Oeste 6.2 -- -- 98
2018-04-04 21:00:00 9 3 Sudeste 11 Este 1.4 -- -- 96
2018-04-04 20:00:00 9.8 3 Norte 8 Norte 0.6 -- -- 91
2018-04-04 19:00:00 10.5 0 Calma 5 Noroeste 0.2 -- -- 91
2018-04-04 18:00:00 10.3 3 Nordeste 6 Este 0.6 -- -- 88
2018-04-04 17:00:00 10.3 3 Sudeste 34 Sudoeste 2.2 -- -- 89
2018-04-04 16:00:00 15 16 Sudoeste 42 Noroeste 0 -- -- 47
2018-04-04 15:00:00 15.2 10 Oeste 40 Oeste 0 -- -- 50
2018-04-04 14:00:00 13.8 18 Oeste 46 Noroeste 0 -- -- 50
2018-04-04 13:00:00 13 17 Oeste 49 Sur 0 -- -- 52
2018-04-04 12:00:00 13.2 17 Sudoeste 58 Oeste 0 -- -- 54
2018-04-04 11:00:00 12.6 14 Sudoeste 48 Sudoeste 0 -- -- 51
2018-04-04 10:00:00 11.4 16 Sudoeste 38 Sudoeste 0 -- -- 54
2018-04-04 09:00:00 11 18 Sudoeste 40 Sudoeste 0 -- -- 56
2018-04-04 08:00:00 10.9 26 Oeste 55 Noroeste 0 -- -- 56
2018-04-04 07:00:00 10.6 13 Oeste 39 Noroeste 0 -- -- 57
2018-04-04 06:00:00 10.5 12 Sudoeste 34 Sudoeste 0 -- -- 59
2018-04-04 05:00:00 10.9 13 Sudoeste 39 Sudoeste 0 -- -- 56
2018-04-04 04:00:00 11 6 Sur 24 Sudoeste 0 -- -- 54
2018-04-04 03:00:00 11.3 20 Sudoeste 37 Sudoeste 0 -- -- 57
2018-04-04 02:00:00 11.9 8 Oeste 21 Oeste 0 -- -- 58
2018-04-04 01:00:00 11.7 2 Sudeste 18 Oeste 0 -- -- 64
2018-04-04 00:00:00 -- 0 Calma 26 Oeste 0 -- -- --
2018-04-03 23:00:00 12.8 7 Sudoeste 33 Sudoeste 0 -- -- 58
2018-04-03 22:00:00 13.8 20 Sudoeste 44 Sudoeste 0 -- -- 51
2018-04-03 21:00:00 13.7 18 Sudoeste 36 Sudoeste 0 -- -- 55
2018-04-03 20:00:00 14.2 15 Sudoeste 33 Sudoeste 0.2 -- -- 53
2018-04-03 19:00:00 15.2 21 Sudoeste 44 Oeste 0 -- -- 55
2018-04-03 18:00:00 16.3 7 Sur 46 Oeste 0 -- -- 52
2018-04-03 17:00:00 16.7 16 Sudoeste 41 Sudoeste 0 -- -- 40
2018-04-03 16:00:00 16.9 20 Sudoeste 43 Sudoeste 0 -- -- 43
2018-04-03 15:00:00 15.6 11 Sur 35 Oeste 0 -- -- 55
2018-04-03 14:00:00 15.4 9 Sudoeste 37 Sudoeste 0 -- -- 52
2018-04-03 13:00:00 15.4 21 Sudoeste 37 Sudoeste 0 -- -- 50
2018-04-03 12:00:00 15.4 13 Sudoeste 31 Sudoeste 0 -- -- 56
2018-04-03 11:00:00 12.6 12 Sur 32 Sudeste 0 -- -- 69
2018-04-03 10:00:00 12 13 Sur 33 Sur 0 -- -- 70
2018-04-03 09:00:00 11.6 17 Sur 45 Sur 0 -- -- 68
2018-04-03 08:00:00 11.2 24 Sur 45 Sudeste 0 -- -- 64
2018-04-03 07:00:00 11.1 20 Sudoeste 38 Sur 0 -- -- 60
2018-04-03 06:00:00 11.8 14 Sur 30 Sur 0 -- -- 57
2018-04-03 05:00:00 12.2 7 Sudoeste 19 Sudeste 0 -- -- 53
2018-04-03 04:00:00 12.8 10 Sur 26 Sur 0 -- -- 49
2018-04-03 03:00:00 13.4 12 Sudoeste 33 Sudoeste 0 -- -- 48
2018-04-03 02:00:00 14.3 13 Sudoeste 29 Sur 0 -- -- 45
2018-04-03 01:00:00 14.4 14 Sudoeste 40 Sur 0 -- -- 42
2018-04-03 00:00:00 14.5 13 Sudoeste 34 Sudoeste 0 -- -- 42
2018-04-02 23:00:00 14.8 14 Sudoeste 27 Oeste 0 -- -- 40
2018-04-02 22:00:00 15.1 13 Sur 26 Sudoeste 0 -- -- 39
2018-04-02 21:00:00 15.3 13 Sudoeste 30 Sur 0 -- -- 39
2018-04-02 20:00:00 15.8 19 Sur 45 Sudoeste 0 -- -- 39
2018-04-02 19:00:00 17.1 15 Sur 44 Sudoeste 0 -- -- 36
2018-04-02 18:00:00 18 16 Sur 43 Sur 0 -- -- 35
2018-04-02 17:00:00 18.7 19 Sur 46 Sur 0 -- -- 35
2018-04-02 16:00:00 18 19 Sudeste 54 Sudoeste 0 -- -- 34
2018-04-02 15:00:00 16.8 21 Sudeste 60 Sudoeste 0 -- -- 34
2018-04-02 14:00:00 -- 21 Sur 57 Oeste 0 -- -- --
2018-04-02 13:00:00 14.2 25 Sur 62 Sur 0 -- -- 38
2018-04-02 12:00:00 13.7 28 Sur 58 Sur 0 -- -- 44
2018-04-02 11:00:00 12.8 26 Sur 50 Sur 0 -- -- 45
2018-04-02 10:00:00 11.8 17 Sur 51 Sur 0 -- -- 50
2018-04-02 09:00:00 10.8 20 Sur 40 Sur 0 -- -- 54
2018-04-02 08:00:00 11.1 31 Sur 58 Sur 0 -- -- 55
2018-04-02 07:00:00 11.8 27 Sudoeste 45 Sur 0 -- -- 52
2018-04-02 06:00:00 11.8 17 Sur 45 Sudoeste 0 -- -- 54
2018-04-02 05:00:00 12 24 Sur 58 Sudoeste 0 -- -- 53
2018-04-02 04:00:00 12.8 30 Sur 56 Sudoeste 0 -- -- 49
2018-04-02 03:00:00 13 19 Sudoeste 44 Sudoeste 0 -- -- 51
2018-04-02 02:00:00 13.5 21 Sudoeste 46 Sudoeste 0 -- -- 49
2018-04-02 01:00:00 14 32 Sudoeste 53 Sudoeste 0 -- -- 47
2018-04-02 00:00:00 14.2 23 Sur 47 Sudoeste 0 -- -- 47
2018-04-01 23:00:00 14 21 Sur 37 Sur 0 -- -- 50
2018-04-01 22:00:00 13.7 17 Sudoeste 39 Sudoeste 0 -- -- 55
2018-04-01 21:00:00 14 27 Sur 48 Sudoeste 0 -- -- 54
2018-04-01 20:00:00 14.2 22 Sur 44 Sudoeste 0 -- -- 53
2018-04-01 19:00:00 14.7 9 Sur 28 Sudeste 0 -- -- 51
2018-04-01 18:00:00 14.7 5 Sudoeste 36 Sur 0 -- -- 51
2018-04-01 17:00:00 14.7 14 Sur 30 Sur 0 -- -- 50
2018-04-01 16:00:00 15.4 11 Sur 27 Sur 0 -- -- 51
2018-04-01 15:00:00 14.2 14 Sur 30 Sudoeste 0 -- -- 54
2018-04-01 14:00:00 12.8 15 Sur 28 Sudoeste 0 -- -- 61
2018-04-01 13:00:00 11.3 12 Sur 31 Sudoeste 0 -- -- 60
2018-04-01 12:00:00 10.4 16 Sur 31 Sur 0 -- -- 64
2018-04-01 11:00:00 9.8 12 Sur 22 Sur 0 -- -- 63
2018-04-01 10:00:00 8.1 9 Sudoeste 17 Sudoeste 0 -- -- 69
2018-04-01 09:00:00 5.9 5 Oeste 12 Oeste 0 -- -- 77
2018-04-01 08:00:00 4.5 2 Oeste 10 Oeste 0 -- -- 84
2018-04-01 07:00:00 3.8 3 Noroeste 6 Noroeste 0 -- -- 89
2018-04-01 06:00:00 2.1 0 Calma 2 Norte 0 -- -- 99
2018-04-01 05:00:00 1.8 0 Calma 0 Calma 0 -- -- 98
2018-04-01 04:00:00 2.3 0 Calma 3 Noroeste 0 -- -- 96
2018-04-01 03:00:00 3.1 0 Calma 2 Noroeste 0 -- -- 94
2018-04-01 02:00:00 4.1 0 Calma 2 Noroeste 0 -- -- 89
2018-04-01 01:00:00 5.3 0 Calma 5 Noroeste 0 -- -- 86
2018-04-01 00:00:00 5.6 0 Calma 12 Norte 0 -- -- 83
2018-03-31 23:00:00 6.6 2 Noroeste 17 Oeste 0 -- -- 76
2018-03-31 22:00:00 6.7 6 Noroeste 17 Noroeste 0 -- -- 73
2018-03-31 21:00:00 6.9 5 Noroeste 16 Oeste 0 -- -- 71
2018-03-31 20:00:00 7.7 5 Norte 17 Noroeste 0.2 -- -- 69
2018-03-31 19:00:00 8.1 4 Norte 13 Noroeste 0 -- -- 73
2018-03-31 18:00:00 7.5 4 Nordeste 31 Norte 0 -- -- 75
2018-03-31 17:00:00 7.8 11 Noroeste 30 Sudoeste 0 -- -- 68
2018-03-31 16:00:00 7.8 11 Oeste 38 Noroeste 0.2 -- -- 75
2018-03-31 15:00:00 7 4 Sudeste 21 Oeste 0 -- -- 79
2018-03-31 14:00:00 5.6 8 Noroeste 37 Noroeste 0.2 -- -- 84
2018-03-31 13:00:00 6.5 9 Sudoeste 28 Sudoeste 0.2 -- -- 76
2018-03-31 12:00:00 6 8 Sur 27 Noroeste 0.2 -- -- 81
2018-03-31 11:00:00 6.2 6 Noroeste 37 Oeste 0.4 -- -- 82
2018-03-31 10:00:00 5 8 Noroeste 31 Noroeste 0.4 -- -- 83
2018-03-31 09:00:00 4.6 6 Oeste 36 Noroeste 0.4 -- -- 82
2018-03-31 08:00:00 3.7 13 Noroeste 30 Noroeste 3.6 -- -- 93
2018-03-31 07:00:00 3.6 7 Sur 38 Noroeste 1.6 -- -- 90
2018-03-31 06:00:00 5.1 16 Sudoeste 36 Oeste 0 -- -- 74
2018-03-31 05:00:00 4.7 5 Sudoeste 37 Noroeste 0 -- -- 73
2018-03-31 04:00:00 5.4 10 Oeste 32 Sudoeste 0 -- -- 65
2018-03-31 03:00:00 6 12 Oeste 28 Noroeste 0 -- -- 58
2018-03-31 02:00:00 6.7 11 Oeste 29 Oeste 0 -- -- 53
2018-03-31 01:00:00 7.3 9 Oeste 32 Sudoeste 0 -- -- 56
2018-03-31 00:00:00 7.3 7 Sudoeste 41 Oeste 0 -- -- 62
2018-03-30 23:00:00 8.3 12 Sudoeste 27 Sudoeste 0 -- -- 56
2018-03-30 22:00:00 9.8 5 Sudoeste 24 Sudoeste 0 -- -- 38
2018-03-30 21:00:00 9.9 14 Sudoeste 30 Sudoeste 0 -- -- 36
2018-03-30 20:00:00 10.4 15 Sudoeste 31 Oeste 0 -- -- 34
2018-03-30 19:00:00 10.6 13 Sudoeste 34 Sudoeste 0 -- -- 36
2018-03-30 18:00:00 10.8 14 Sudoeste 40 Sur 0 -- -- 38
2018-03-30 17:00:00 11.8 19 Sudoeste 37 Sudoeste 0 -- -- 36
2018-03-30 16:00:00 11.6 16 Sudoeste 48 Sudoeste 0 -- -- 38
2018-03-30 15:00:00 10.9 19 Sudoeste 37 Oeste 0 -- -- 39
2018-03-30 14:00:00 10.4 18 Sudoeste 31 Sudoeste 0 -- -- 42
2018-03-30 13:00:00 9.5 10 Sudoeste 26 Sudoeste 0 -- -- 49
2018-03-30 12:00:00 7.6 10 Sudoeste 24 Sudoeste 0 -- -- 59
2018-03-30 11:00:00 6.8 8 Oeste 18 Sudoeste 0 -- -- 63
2018-03-30 10:00:00 6.3 3 Nordeste 8 Nordeste 0 -- -- 77
2018-03-30 09:00:00 4.1 0 Calma 34 Norte 0.4 -- -- 89
2018-03-30 08:00:00 6.7 8 Oeste 33 Sudoeste 0 -- -- 64
2018-03-30 07:00:00 7.1 15 Oeste 41 Sudoeste 0 -- -- 65
2018-03-30 06:00:00 7.5 14 Oeste 45 Sudoeste 0 -- -- 62
2018-03-30 05:00:00 8.4 20 Oeste 60 Sudoeste 0 -- -- 68
2018-03-30 04:00:00 10.5 13 Sudoeste 36 Oeste 0 -- -- 46
2018-03-30 03:00:00 11 16 Sudoeste 42 Sur 0 -- -- 42
2018-03-30 02:00:00 10.3 10 Sudoeste 37 Sur 0 -- -- 42
2018-03-30 01:00:00 10.2 8 Sudoeste 20 Sudoeste 0 -- -- 41
2018-03-30 00:00:00 9.1 4 Sur 19 Este 0 -- -- 54
2018-03-29 23:00:00 8.9 2 Sudeste 6 Sur 0 -- -- 60
2018-03-29 22:00:00 9.4 0 Calma 16 Oeste 0 -- -- 55
2018-03-29 21:00:00 10.3 0 Calma 8 Sudoeste 0 -- -- 50
2018-03-29 20:00:00 12.3 4 Noroeste 21 Sur 0 -- -- 42
2018-03-29 19:00:00 13.7 10 Oeste 26 Oeste 0 -- -- 37
2018-03-29 18:00:00 13.6 9 Oeste 24 Oeste 0 -- -- 39
2018-03-29 17:00:00 13.8 7 Oeste 17 Noroeste 0 -- -- 39
2018-03-29 16:00:00 12.8 6 Oeste 24 Oeste 0 -- -- 40
2018-03-29 15:00:00 11.4 9 Oeste 22 Oeste 0 -- -- 50
2018-03-29 14:00:00 10.8 11 Oeste 22 Noroeste 0 -- -- 60
2018-03-29 13:00:00 9.6 9 Oeste 20 Oeste 0 -- -- 67
2018-03-29 12:00:00 8.9 2 Sur 10 Sur 0 -- -- 82
2018-03-29 11:00:00 7.7 3 Sur 6 Sur 0 -- -- 89
2018-03-29 10:00:00 6 0 Calma 4 Sudeste 0.2 -- -- 100
2018-03-29 09:00:00 5.3 0 Calma 4 Sur 0.2 -- -- 100
2018-03-29 08:00:00 5.1 0 Calma 3 Sur 0 -- -- 100
2018-03-29 07:00:00 5.2 0 Calma 3 Sudeste 0.4 -- -- 100
2018-03-29 06:00:00 5.6 0 Calma 5 Sudeste 0 -- -- 100
2018-03-29 05:00:00 5.8 0 Calma 3 Sudeste 0.2 -- -- 100
2018-03-29 04:00:00 5.9 2 Sudeste 6 Sur 0 -- -- 100
2018-03-29 03:00:00 6.2 2 Sudeste 12 Noroeste 0 -- -- 98
2018-03-29 02:00:00 6.7 4 Sur 9 Sur 1.2 -- -- 100
2018-03-29 01:00:00 7 0 Calma 7 Nordeste 0.6 -- -- 99
2018-03-29 00:00:00 7.4 3 Sudeste 18 Oeste 2.2 -- -- 98
2018-03-28 23:00:00 8.3 4 Sudoeste 10 Sudoeste 3.8 -- -- 98
2018-03-28 22:00:00 8.5 3 Nordeste 9 Norte 2.4 -- -- 99
2018-03-28 21:00:00 9 3 Sur 11 Nordeste 1.6 -- -- 94
2018-03-28 20:00:00 9.8 2 Nordeste 13 Este 0 -- -- 86
2018-03-28 19:00:00 10 8 Este 22 Nordeste 0 -- -- 86
2018-03-28 18:00:00 11.5 8 Nordeste 21 Nordeste 0 -- -- 79
2018-03-28 17:00:00 14.5 5 Nordeste 22 Nordeste 0 -- -- 72
2018-03-28 16:00:00 -- 9 Nordeste 22 Nordeste 0 -- -- --
2018-03-28 15:00:00 15.2 6 Este 20 Oeste 0 -- -- 61
2018-03-28 14:00:00 14.1 13 Oeste 23 Oeste 0 -- -- 66
2018-03-28 13:00:00 13.9 10 Sudoeste 22 Oeste 0 -- -- 65
2018-03-28 12:00:00 12.5 7 Oeste 15 Oeste 0 -- -- 74
2018-03-28 11:00:00 10.6 9 Sur 15 Sudoeste 0 -- -- 85
2018-03-28 10:00:00 8.4 0 Calma 4 Norte 0 -- -- 100
2018-03-28 09:00:00 7.7 2 Norte 5 Norte 0 -- -- 100
2018-03-28 08:00:00 7.7 0 Calma 0 Calma 0 -- -- 100
2018-03-28 07:00:00 7.9 0 Calma -- -- 0 -- -- 100
2018-03-28 06:00:00 8 0 Calma 3 Norte 0 -- -- 100
2018-03-28 05:00:00 8.3 0 Calma 2 Norte 0 -- -- 100
2018-03-28 04:00:00 8.4 0 Calma 2 Norte 0 -- -- 100
2018-03-28 03:00:00 8.6 0 Calma 5 Nordeste 0 -- -- 100
2018-03-28 02:00:00 8.6 0 Calma 2 Norte 0 -- -- 100
2018-03-28 01:00:00 8.7 0 Calma 3 Norte 0 -- -- 100
2018-03-28 00:00:00 8.7 0 Calma 2 Norte 0 -- -- 100
2018-03-27 23:00:00 9 0 Calma 2 Norte 0 -- -- 100
2018-03-27 22:00:00 8.9 0 Calma 5 Nordeste 0 -- -- 100
2018-03-27 21:00:00 9.3 0 Calma 4 Este 0 -- -- 100
2018-03-27 20:00:00 9.8 0 Calma 2 Nordeste 0 -- -- 99
2018-03-27 19:00:00 9.6 0 Calma 6 Nordeste 0.4 -- -- 100
2018-03-27 18:00:00 9.7 2 Nordeste 6 Nordeste 0 -- -- 97
2018-03-27 17:00:00 9.8 0 Calma 9 Nordeste 0 -- -- 97
2018-03-27 16:00:00 9.7 4 Este 8 Nordeste 0 -- -- 98
2018-03-27 15:00:00 9.7 3 Nordeste 8 Nordeste 0 -- -- 98
2018-03-27 14:00:00 9.3 0 Calma 17 Norte 0 -- -- 96
2018-03-27 13:00:00 9.3 6 Norte 17 Norte 0 -- -- 95
2018-03-27 12:00:00 8.7 6 Noroeste 27 Noroeste 0 -- -- 98
2018-03-27 11:00:00 8.7 3 Sudoeste 19 Oeste 2 -- -- 99
2018-03-27 10:00:00 8.7 4 Oeste 20 Oeste 1.6 -- -- 100
2018-03-27 09:00:00 8.3 3 Noroeste 16 Noroeste 0.8 -- -- 100
2018-03-27 08:00:00 7.5 0 Calma 9 Norte 1.2 -- -- 100
2018-03-27 07:00:00 7.5 2 Sudeste 6 Sur 0.6 -- -- 100
2018-03-27 06:00:00 6.6 0 Calma 5 Norte 1 -- -- 100
2018-03-27 05:00:00 5.9 0 Calma 4 Nordeste 0.6 -- -- 100
2018-03-27 04:00:00 5.4 0 Calma 5 Norte 0.8 -- -- 100
2018-03-27 03:00:00 5 0 Calma 2 Norte 0.4 -- -- 100
2018-03-27 02:00:00 4.9 0 Calma 2 Norte 0 -- -- 100
2018-03-27 01:00:00 4.9 0 Calma 2 Norte 0 -- -- 100
2018-03-27 00:00:00 4.9 0 Calma 0 Calma 0 -- -- 100
2018-03-26 23:00:00 4.9 0 Calma 5 Nordeste 0 -- -- 100
2018-03-26 22:00:00 5 0 Calma 10 Norte 0.6 -- -- 99
2018-03-26 21:00:00 5.4 2 Noroeste 20 Oeste 0.4 -- -- 95
2018-03-26 20:00:00 5.9 5 Noroeste 18 Oeste 0.2 -- -- 91
2018-03-26 19:00:00 6.5 5 Noroeste 18 Noroeste 0.2 -- -- 89
2018-03-26 18:00:00 7 7 Noroeste 20 Noroeste 0 -- -- 81
2018-03-26 17:00:00 7 3 Sudoeste 12 Nordeste 0.2 -- -- 90
2018-03-26 16:00:00 6.9 5 Este 15 Nordeste 0.4 -- -- 89
2018-03-26 15:00:00 7.2 5 Este 20 Oeste 0.4 -- -- 92
2018-03-26 14:00:00 7 10 Oeste 27 Oeste 0.8 -- -- 82
2018-03-26 13:00:00 7.5 6 Sudeste 28 Nordeste 0 -- -- 78
2018-03-26 12:00:00 7.9 10 Sudeste 32 Sur 0 -- -- 72
2018-03-26 11:00:00 6.1 6 Sur 32 Oeste 0 -- -- 84
2018-03-26 10:00:00 5.8 6 Oeste 27 Oeste 0.2 -- -- 89
2018-03-26 09:00:00 5.9 13 Oeste 28 Oeste 4 -- -- 90
2018-03-26 08:00:00 5.6 5 Sudeste 23 Nordeste 6.8 -- -- 100
2018-03-26 07:00:00 6.1 6 Sudeste 25 Noroeste 2.2 -- -- 97
2018-03-26 06:00:00 6.2 4 Sur 19 Sudeste 2.2 -- -- 99
2018-03-26 05:00:00 6.4 5 Sudoeste 14 Sur 2 -- -- 96
2018-03-26 04:00:00 6.6 4 Sudoeste 33 Noroeste 0.6 -- -- 95
2018-03-26 03:00:00 6.6 8 Oeste 23 Oeste 0.8 -- -- 93
2018-03-26 02:00:00 6.5 5 Sur 15 Sudoeste 0 -- -- 97
2018-03-26 01:00:00 6.7 6 Oeste 23 Oeste 2.2 -- -- 96
2018-03-26 00:00:00 5.8 2 Oeste 18 Noroeste 3.6 -- -- 99
2018-03-25 23:00:00 6.1 4 Sudoeste 20 Noroeste 0.2 -- -- 94
2018-03-25 22:00:00 6 4 Norte 20 Noroeste 0.6 -- -- 94
2018-03-25 21:00:00 6.2 5 Noroeste 18 Noroeste 0.8 -- -- 92
2018-03-25 20:00:00 6.4 7 Noroeste 16 Noroeste 0 -- -- 89
2018-03-25 19:00:00 6.4 3 Sudoeste 20 Noroeste 0.2 -- -- 91
2018-03-25 18:00:00 6.5 7 Noroeste 21 Noroeste 0 -- -- 88
2018-03-25 17:00:00 6.1 6 Noroeste 18 Noroeste 0.2 -- -- 90
2018-03-25 16:00:00 -- 4 Noroeste 19 Norte 0.4 -- -- --
2018-03-25 15:00:00 5.6 3 Sur 12 Noroeste 1.8 -- -- 95
2018-03-25 14:00:00 5.8 3 Sudeste 24 Sudoeste 1 -- -- 91
2018-03-25 13:00:00 5.4 8 Sudoeste 20 Sudoeste 0.2 -- -- 91
2018-03-25 12:00:00 4.9 10 Sudoeste 23 Oeste 0.4 -- -- 90
2018-03-25 11:00:00 4.8 10 Sudoeste 22 Oeste 0 -- -- 86
2018-03-25 10:00:00 4.7 10 Oeste 25 Sudoeste 0 -- -- 89
2018-03-25 09:00:00 4.6 6 Sudoeste 26 Sudoeste 0 -- -- 88
2018-03-25 08:00:00 4.3 8 Sudoeste 30 Sur 0 -- -- 90
2018-03-25 07:00:00 4.4 9 Sudoeste 27 Sudoeste 0 -- -- 87
2018-03-25 06:00:00 4.6 8 Sudoeste 30 Sudoeste 0 -- -- 87
2018-03-25 05:00:00 4.8 11 Sudoeste 44 Sudoeste 0 -- -- 85
2018-03-25 03:00:00 4.8 11 Oeste 26 Sudoeste 0.8 -- -- 89
2018-03-25 01:00:00 4.9 8 Sudoeste 22 Sudoeste 1 -- -- 94
2018-03-25 00:00:00 5 5 Sur 21 Oeste 0.8 -- -- 93
2018-03-24 23:00:00 5.3 10 Sudoeste 22 Sudoeste 1.2 -- -- 94
2018-03-24 22:00:00 5.1 4 Sudeste 19 Sur 1.6 -- -- 95
2018-03-24 21:00:00 5.4 3 Oeste 14 Noroeste 0.4 -- -- 93
2018-03-24 20:00:00 5.5 10 Sudoeste 32 Sudoeste 0.4 -- -- 91
2018-03-24 19:00:00 6 11 Sudoeste 31 Oeste 1 -- -- 89
2018-03-24 18:00:00 6.6 9 Sudoeste 23 Sudoeste 0.8 -- -- 88
2018-03-24 17:00:00 7 14 Sudoeste 25 Oeste 0.4 -- -- 81
2018-03-24 16:00:00 6.9 7 Sudoeste 21 Sur 0.4 -- -- 81
2018-03-24 15:00:00 7.9 4 Noroeste 27 Oeste 0.2 -- -- 73
2018-03-24 14:00:00 8.2 10 Sudoeste 33 Oeste 0 -- -- 67
2018-03-24 13:00:00 7.1 7 Oeste 28 Oeste 0 -- -- 70
2018-03-24 12:00:00 8.5 9 Sudoeste 40 Sudoeste 0 -- -- 62
2018-03-24 11:00:00 8.3 6 Sur 31 Sur 0 -- -- 61
2018-03-24 10:00:00 6.6 12 Sudoeste 26 Sudoeste 0 -- -- 65
2018-03-24 09:00:00 3.5 2 Sur 9 Este 0 -- -- 99
2018-03-24 08:00:00 1.7 0 Calma 5 Oeste 0 -- -- 99
2018-03-24 07:00:00 1.7 0 Calma 5 Sudeste 0 -- -- 99
2018-03-24 06:00:00 2.4 0 Calma 8 Este 0 -- -- 97
2018-03-24 05:00:00 3.3 0 Calma 14 Noroeste 0 -- -- 94
2018-03-24 04:00:00 3.6 4 Norte 16 Norte 0 -- -- 95
2018-03-24 03:00:00 3.3 0 Calma 18 Norte 1.8 -- -- 96
2018-03-24 02:00:00 3.8 3 Este 17 Noroeste 3.2 -- -- 93
2018-03-24 01:00:00 4.8 9 Noroeste 24 Noroeste 2.6 -- -- 90
2018-03-24 00:00:00 5.8 9 Norte 37 Oeste 3.2 -- -- 90
2018-03-23 23:00:00 8.5 15 Oeste 35 Noroeste 2.4 -- -- 83
2018-03-23 22:00:00 10.3 12 Sudoeste 37 Oeste 0.2 -- -- 77
2018-03-23 21:00:00 10.3 14 Sudoeste 26 Sudoeste 0 -- -- 73
2018-03-23 20:00:00 10.3 13 Sudoeste 33 Sudoeste 0 -- -- 75
2018-03-23 19:00:00 11.1 13 Sur 27 Sur 0 -- -- 71
2018-03-23 18:00:00 12.2 8 Sudoeste 15 Sudoeste 0.2 -- -- 68
2018-03-23 17:00:00 12.2 7 Sudoeste 18 Sudoeste 0 -- -- 68
2018-03-23 16:00:00 11.3 7 Sur 20 Sudoeste 0 -- -- 75
2018-03-23 15:00:00 10.2 0 Calma 7 Sudoeste 0 -- -- 86
2018-03-23 14:00:00 8.8 0 Calma 11 Sur 0 -- -- 94
2018-03-23 13:00:00 8.1 3 Sur 5 Sur 0 -- -- 96
2018-03-23 12:00:00 6.3 0 Calma 3 Sur 0.2 -- -- 98
2018-03-23 11:00:00 5.3 0 Calma 5 Oeste 0.4 -- -- 94
2018-03-23 10:00:00 3.8 0 Calma 4 Sudoeste 0 -- -- 91
2018-03-23 09:00:00 2.5 0 Calma 4 Noroeste 0 -- -- 91
2018-03-23 08:00:00 1.8 0 Calma 3 Noroeste 0 -- -- 87
2018-03-23 07:00:00 1.4 0 Calma 4 Noroeste 0 -- -- 73
2018-03-23 06:00:00 0.6 0 Calma 4 Noroeste 0 -- -- 83
2018-03-23 05:00:00 -0.7 0 Calma 2 Oeste 0 -- -- 85
2018-03-23 04:00:00 -1.1 0 Calma 2 Oeste 0 -- -- 88
2018-03-23 03:00:00 -1.5 0 Calma 2 Noroeste 0 -- -- 92
2018-03-23 02:00:00 -1.5 0 Calma 2 Oeste 0 -- -- 93
2018-03-23 01:00:00 -1.3 0 Calma 2 Noroeste 0 -- -- 92
2018-03-23 00:00:00 -1.1 0 Calma 2 Oeste 0 -- -- 92